createdAt,value
2023-04-23T00:01:29.264Z,13.90
2023-04-23T00:03:58.959Z,13.70
2023-04-23T00:06:28.129Z,13.70
2023-04-23T00:08:56.682Z,13.80
2023-04-23T00:11:24.980Z,13.90
2023-04-23T00:13:53.164Z,14.00
2023-04-23T00:16:21.878Z,14.10
2023-04-23T00:18:51.521Z,14.10
2023-04-23T00:21:19.685Z,14.00
2023-04-23T00:23:48.473Z,13.90
2023-04-23T00:26:18.821Z,13.70
2023-04-23T00:28:47.324Z,13.70
2023-04-23T00:31:15.491Z,13.80
2023-04-23T00:33:43.596Z,13.90
2023-04-23T00:36:11.580Z,13.90
2023-04-23T00:38:39.760Z,14.00
2023-04-23T00:41:08.264Z,14.00
2023-04-23T00:43:38.277Z,14.00
2023-04-23T00:46:07.401Z,14.00
2023-04-23T00:48:35.986Z,13.90
2023-04-23T00:51:07.729Z,13.90
2023-04-23T00:53:35.803Z,13.90
2023-04-23T00:56:05.370Z,13.90
2023-04-23T00:58:33.562Z,13.90
2023-04-23T01:01:04.154Z,13.90
2023-04-23T01:03:33.575Z,13.90
2023-04-23T01:06:01.784Z,13.90
2023-04-23T01:08:30.339Z,13.90
2023-04-23T01:10:59.123Z,13.80
2023-04-23T01:13:30.750Z,13.80
2023-04-23T01:15:58.848Z,13.70
2023-04-23T01:18:26.999Z,13.70
2023-04-23T01:20:55.414Z,13.60
2023-04-23T01:23:23.599Z,13.40
2023-04-23T01:25:51.680Z,13.50
2023-04-23T01:28:19.886Z,13.50
2023-04-23T01:30:48.000Z,13.50
2023-04-23T01:33:16.364Z,13.40
2023-04-23T01:35:44.838Z,13.30
2023-04-23T01:38:12.949Z,13.30
2023-04-23T01:40:40.973Z,13.20
2023-04-23T01:43:09.129Z,13.20
2023-04-23T01:45:37.474Z,13.10
2023-04-23T01:48:05.698Z,13.00
2023-04-23T01:50:34.048Z,13.00
2023-04-23T01:53:02.057Z,12.90
2023-04-23T01:55:30.115Z,12.90
2023-04-23T01:57:58.237Z,12.90
2023-04-23T02:00:26.775Z,12.90
2023-04-23T02:02:55.225Z,13.00
2023-04-23T02:05:24.000Z,12.90
2023-04-23T02:07:52.389Z,12.90
2023-04-23T02:10:23.550Z,12.90
2023-04-23T02:12:54.751Z,12.90
2023-04-23T02:15:22.917Z,12.90
2023-04-23T02:17:53.487Z,12.80
2023-04-23T02:20:23.006Z,12.80
2023-04-23T02:22:52.232Z,12.80
2023-04-23T02:25:23.019Z,12.90
2023-04-23T02:27:51.851Z,12.80
2023-04-23T02:30:19.938Z,12.70
2023-04-23T02:32:48.132Z,12.70
2023-04-23T02:35:16.181Z,12.70
2023-04-23T02:37:44.326Z,12.60
2023-04-23T02:40:12.724Z,12.60
2023-04-23T02:42:43.186Z,12.50
2023-04-23T02:45:12.627Z,12.50
2023-04-23T02:47:40.900Z,12.40
2023-04-23T02:50:09.392Z,12.40
2023-04-23T02:52:38.475Z,12.40
2023-04-23T02:55:06.823Z,12.30
2023-04-23T02:57:34.856Z,12.30
2023-04-23T03:00:02.897Z,12.30
2023-04-23T03:02:37.088Z,12.30
2023-04-23T03:05:05.820Z,12.30
2023-04-23T03:07:33.885Z,12.40
2023-04-23T03:10:02.619Z,12.50
2023-04-23T03:12:30.940Z,12.60
2023-04-23T03:14:59.120Z,12.60
2023-04-23T03:17:28.955Z,12.70
2023-04-23T03:19:57.128Z,12.80
2023-04-23T03:22:25.662Z,12.80
2023-04-23T03:24:53.804Z,12.80
2023-04-23T03:27:22.292Z,12.80
2023-04-23T03:29:50.472Z,12.80
2023-04-23T03:32:18.612Z,12.80
2023-04-23T03:34:47.034Z,12.70
2023-04-23T03:37:15.320Z,12.60
2023-04-23T03:39:43.580Z,12.60
2023-04-23T03:42:20.078Z,12.60
2023-04-23T03:44:48.679Z,12.60
2023-04-23T03:47:17.759Z,12.60
2023-04-23T03:49:46.233Z,12.70
2023-04-23T03:52:14.705Z,12.80
2023-04-23T03:54:43.436Z,12.80
2023-04-23T03:57:19.190Z,12.70
2023-04-23T04:00:16.860Z,12.80
2023-04-23T04:02:45.089Z,12.80
2023-04-23T04:05:14.526Z,12.80
2023-04-23T04:07:42.765Z,12.90
2023-04-23T04:10:10.884Z,12.90
2023-04-23T04:12:39.097Z,12.80
2023-04-23T04:15:10.757Z,12.80
2023-04-23T04:17:38.875Z,12.80
2023-04-23T04:20:12.572Z,12.90
2023-04-23T04:22:40.648Z,12.90
2023-04-23T04:25:09.055Z,12.80
2023-04-23T04:27:39.361Z,12.80
2023-04-23T04:30:08.085Z,12.80
2023-04-23T04:32:36.687Z,12.80
2023-04-23T04:35:05.276Z,12.80
2023-04-23T04:37:33.818Z,12.80
2023-04-23T04:40:02.783Z,12.70
2023-04-23T04:42:30.792Z,12.80
2023-04-23T04:45:00.771Z,12.80
2023-04-23T04:47:28.997Z,12.80
2023-04-23T04:49:58.814Z,12.80
2023-04-23T04:52:26.856Z,12.90
2023-04-23T04:54:54.834Z,12.90
2023-04-23T04:57:24.197Z,12.90
2023-04-23T04:59:52.292Z,12.90
2023-04-23T05:02:21.593Z,12.90
2023-04-23T05:04:50.203Z,12.90
2023-04-23T05:07:18.264Z,13.00
2023-04-23T05:09:46.283Z,12.90
2023-04-23T05:12:14.269Z,13.00
2023-04-23T05:14:42.518Z,13.00
2023-04-23T05:17:10.569Z,13.10
2023-04-23T05:19:38.593Z,13.10
2023-04-23T05:22:07.184Z,13.10
2023-04-23T05:24:35.230Z,13.10
2023-04-23T05:27:03.845Z,13.20
2023-04-23T05:29:31.857Z,13.20
2023-04-23T05:31:59.912Z,13.10
2023-04-23T05:34:27.981Z,13.20
2023-04-23T05:36:56.013Z,13.20
2023-04-23T05:39:25.066Z,13.30
2023-04-23T05:41:53.043Z,13.30
2023-04-23T05:44:21.168Z,13.40
2023-04-23T05:46:49.184Z,13.30
2023-04-23T05:49:17.404Z,13.10
2023-04-23T05:51:46.693Z,13.10
2023-04-23T05:54:14.898Z,13.10
2023-04-23T05:56:42.953Z,13.00
2023-04-23T05:59:10.965Z,13.10
2023-04-23T06:01:39.035Z,13.20
2023-04-23T06:04:09.083Z,13.30
2023-04-23T06:06:37.291Z,13.30
2023-04-23T06:09:05.809Z,13.30
2023-04-23T06:11:34.005Z,13.30
2023-04-23T06:14:02.244Z,13.40
2023-04-23T06:16:33.500Z,13.30
2023-04-23T06:19:01.817Z,13.30
2023-04-23T06:21:38.631Z,13.30
2023-04-23T06:24:08.656Z,13.40
2023-04-23T06:27:05.313Z,13.40
2023-04-23T06:29:38.914Z,13.40
2023-04-23T06:32:07.663Z,13.40
2023-04-23T06:34:36.093Z,13.40
2023-04-23T06:37:05.467Z,13.40
2023-04-23T06:39:44.767Z,13.40
2023-04-23T06:42:21.451Z,13.40
2023-04-23T06:45:09.389Z,13.40
2023-04-23T06:47:43.203Z,13.50
2023-04-23T06:50:11.690Z,13.50
2023-04-23T06:52:39.847Z,13.50
2023-04-23T06:55:08.524Z,13.60
2023-04-23T06:57:37.371Z,13.70
2023-04-23T07:00:08.020Z,13.70
2023-04-23T07:02:39.714Z,13.70
2023-04-23T07:05:08.052Z,13.80
2023-04-23T07:07:38.684Z,13.80
2023-04-23T07:10:06.939Z,13.80
2023-04-23T07:12:34.951Z,13.90
2023-04-23T07:15:03.264Z,13.80
2023-04-23T07:17:31.387Z,13.80
2023-04-23T07:19:59.467Z,13.80
2023-04-23T07:22:30.068Z,13.90
2023-04-23T07:24:58.650Z,14.00
2023-04-23T07:27:26.838Z,14.00
2023-04-23T07:29:54.979Z,14.00
2023-04-23T07:32:24.937Z,14.00
2023-04-23T07:34:53.710Z,14.00
2023-04-23T07:37:22.995Z,14.00
2023-04-23T07:42:31.830Z,13.80
2023-04-23T07:44:59.873Z,13.80
2023-04-23T07:47:28.392Z,13.80
2023-04-23T07:49:56.655Z,13.80
2023-04-23T07:52:24.856Z,13.70
2023-04-23T07:54:52.919Z,13.70
2023-04-23T07:57:21.055Z,13.80
2023-04-23T07:59:49.370Z,13.70
2023-04-23T08:02:19.617Z,13.60
2023-04-23T08:04:47.934Z,13.40
2023-04-23T08:07:16.014Z,13.50
2023-04-23T08:09:44.429Z,13.50
2023-04-23T08:12:12.752Z,13.50
2023-04-23T08:14:40.771Z,13.40
2023-04-23T08:17:14.359Z,13.40
2023-04-23T08:19:42.604Z,13.40
2023-04-23T08:22:11.906Z,13.40
2023-04-23T08:24:40.048Z,13.50
2023-04-23T08:27:08.173Z,13.70
2023-04-23T08:29:36.850Z,13.90
2023-04-23T08:32:05.329Z,14.10
2023-04-23T08:34:35.691Z,14.20
2023-04-23T08:37:04.009Z,14.30
2023-04-23T08:39:34.510Z,14.70
2023-04-23T08:42:07.469Z,14.90
2023-04-23T08:44:39.642Z,15.00
2023-04-23T08:47:08.859Z,15.30
2023-04-23T08:49:37.631Z,15.90
2023-04-23T08:52:20.455Z,16.70
2023-04-23T08:54:52.030Z,17.00
2023-04-23T08:57:20.143Z,17.70
2023-04-23T08:59:48.635Z,18.10
2023-04-23T09:02:18.127Z,18.20
2023-04-23T09:04:47.919Z,18.20
2023-04-23T09:07:19.056Z,18.40
2023-04-23T09:09:47.181Z,19.00
2023-04-23T09:12:15.380Z,19.10
2023-04-23T09:14:43.756Z,19.40
2023-04-23T09:17:11.991Z,19.40
2023-04-23T09:19:41.168Z,19.60
2023-04-23T09:22:10.472Z,19.70
2023-04-23T09:24:38.926Z,19.60
2023-04-23T09:27:07.283Z,19.60
2023-04-23T09:29:35.354Z,19.90
2023-04-23T09:32:10.517Z,20.10
2023-04-23T09:34:42.514Z,19.90
2023-04-23T09:37:12.336Z,19.00
2023-04-23T09:39:40.710Z,18.60
2023-04-23T09:42:12.048Z,18.30
2023-04-23T09:44:40.132Z,18.20
2023-04-23T09:47:11.024Z,18.10
2023-04-23T09:49:49.169Z,18.20
2023-04-23T09:52:17.961Z,18.50
2023-04-23T09:54:50.066Z,18.60
2023-04-23T10:00:07.264Z,18.30
2023-04-23T10:02:41.381Z,18.20
2023-04-23T10:05:26.024Z,18.00
2023-04-23T10:07:59.752Z,17.60
2023-04-23T10:10:27.894Z,17.60
2023-04-23T10:13:00.790Z,17.60
2023-04-23T10:15:31.362Z,17.50
2023-04-23T10:18:00.590Z,17.50
2023-04-23T10:20:28.681Z,17.30
2023-04-23T10:22:58.037Z,17.20
2023-04-23T10:25:27.020Z,17.20
2023-04-23T10:27:56.437Z,17.10
2023-04-23T10:30:24.685Z,17.30
2023-04-23T10:32:52.964Z,17.40
2023-04-23T10:35:21.054Z,17.60
2023-04-23T10:37:49.747Z,17.80
2023-04-23T10:40:23.169Z,17.90
2023-04-23T10:42:51.835Z,18.00
2023-04-23T10:45:24.600Z,18.10
2023-04-23T10:47:54.470Z,18.10
2023-04-23T10:50:24.029Z,17.90
2023-04-23T10:52:55.503Z,18.00
2023-04-23T10:55:27.903Z,18.10
2023-04-23T10:58:03.608Z,18.30
2023-04-23T11:00:46.960Z,18.80
2023-04-23T11:03:43.179Z,18.90
2023-04-23T11:06:16.981Z,18.90
2023-04-23T11:08:55.322Z,18.80
2023-04-23T11:11:42.450Z,18.80
2023-04-23T11:14:19.179Z,18.80
2023-04-23T11:16:51.440Z,18.80
2023-04-23T11:19:20.678Z,18.50
2023-04-23T11:22:01.238Z,18.40
2023-04-23T11:24:43.302Z,18.70
2023-04-23T11:27:12.827Z,18.80
2023-04-23T11:29:41.811Z,19.10
2023-04-23T11:32:14.401Z,19.40
2023-04-23T11:34:44.505Z,19.60
2023-04-23T11:37:13.455Z,19.80
2023-04-23T11:39:43.237Z,19.70
2023-04-23T11:42:15.480Z,20.10
2023-04-23T11:44:44.427Z,20.30
2023-04-23T11:47:13.773Z,20.40
2023-04-23T11:49:44.696Z,20.30
2023-04-23T11:52:16.148Z,20.20
2023-04-23T11:54:46.937Z,20.50
2023-04-23T11:57:15.884Z,20.70
2023-04-23T11:59:44.272Z,20.70
2023-04-23T12:02:12.707Z,20.80
2023-04-23T12:04:41.507Z,20.50
2023-04-23T12:07:19.659Z,20.10
2023-04-23T12:09:54.230Z,19.90
2023-04-23T12:12:22.509Z,19.60
2023-04-23T12:14:50.550Z,19.40
2023-04-23T12:17:18.663Z,19.30
2023-04-23T12:19:46.757Z,19.20
2023-04-23T12:22:14.773Z,19.20
2023-04-23T12:24:56.096Z,19.20
2023-04-23T12:27:24.341Z,19.10
2023-04-23T12:30:00.745Z,19.00
2023-04-23T12:32:28.799Z,18.80
2023-04-23T12:34:57.114Z,18.80
2023-04-23T12:37:27.085Z,18.80
2023-04-23T12:40:00.425Z,18.70
2023-04-23T12:42:31.073Z,18.80
2023-04-23T12:45:06.643Z,18.80
2023-04-23T12:47:34.714Z,18.80
2023-04-23T12:50:02.854Z,18.70
2023-04-23T12:52:30.986Z,18.70
2023-04-23T12:55:00.324Z,18.60
2023-04-23T12:57:29.228Z,18.50
2023-04-23T12:59:57.747Z,18.50
2023-04-23T13:02:27.062Z,18.50
2023-04-23T13:05:01.351Z,18.40
2023-04-23T13:07:29.610Z,18.40
2023-04-23T13:09:58.498Z,18.30
2023-04-23T13:12:26.908Z,18.30
2023-04-23T13:14:54.927Z,18.10
2023-04-23T13:17:23.298Z,18.10
2023-04-23T13:19:51.342Z,18.30
2023-04-23T13:22:19.413Z,18.40
2023-04-23T13:24:47.464Z,18.50
2023-04-23T13:27:15.852Z,18.50
2023-04-23T13:29:44.136Z,18.60
2023-04-23T13:32:12.736Z,18.80
2023-04-23T13:34:40.841Z,19.40
2023-04-23T13:37:10.591Z,19.90
2023-04-23T13:39:41.469Z,20.30
2023-04-23T13:42:10.453Z,20.70
2023-04-23T13:44:38.603Z,21.10
2023-04-23T13:47:06.741Z,21.40
2023-04-23T13:49:34.848Z,21.30
2023-04-23T13:52:07.672Z,21.10
2023-04-23T13:54:36.835Z,21.00
2023-04-23T13:57:04.988Z,20.80
2023-04-23T13:59:33.087Z,20.80
2023-04-23T14:02:01.156Z,20.60
2023-04-23T14:04:29.291Z,20.40
2023-04-23T14:06:57.403Z,20.50
2023-04-23T14:09:27.044Z,20.50
2023-04-23T14:14:35.785Z,19.80
2023-04-23T14:17:03.786Z,19.60
2023-04-23T14:19:35.732Z,19.50
2023-04-23T14:22:03.974Z,19.60
2023-04-23T14:24:35.577Z,19.70
2023-04-23T14:27:05.565Z,19.80
2023-04-23T14:29:41.583Z,20.10
2023-04-23T14:32:09.900Z,20.60
2023-04-23T14:34:37.996Z,21.30
2023-04-23T14:37:06.259Z,21.90
2023-04-23T14:39:35.080Z,22.10
2023-04-23T14:42:03.933Z,21.90
2023-04-23T14:44:32.129Z,21.80
2023-04-23T14:47:00.236Z,22.00
2023-04-23T14:49:28.405Z,22.20
2023-04-23T14:51:56.573Z,22.10
2023-04-23T14:54:24.810Z,22.00
2023-04-23T14:56:53.128Z,21.80
2023-04-23T14:59:22.304Z,21.70
2023-04-23T15:01:50.482Z,21.70
2023-04-23T15:04:18.728Z,21.50
2023-04-23T15:06:46.895Z,21.50
2023-04-23T15:09:14.925Z,21.50
2023-04-23T15:11:44.374Z,21.80
2023-04-23T15:14:32.685Z,22.10
2023-04-23T15:17:01.022Z,22.20
2023-04-23T15:19:29.753Z,22.30
2023-04-23T15:21:57.790Z,22.30
2023-04-23T15:24:25.906Z,22.30
2023-04-23T15:26:55.887Z,22.60
2023-04-23T15:29:25.581Z,22.70
2023-04-23T15:31:59.158Z,22.90
2023-04-23T15:34:27.284Z,22.60
2023-04-23T15:36:55.318Z,22.10
2023-04-23T15:39:23.453Z,21.90
2023-04-23T15:41:52.427Z,21.80
2023-04-23T15:44:20.537Z,21.70
2023-04-23T15:46:48.547Z,21.60
2023-04-23T15:49:16.676Z,21.30
2023-04-23T15:51:44.859Z,21.10
2023-04-23T15:54:12.989Z,20.90
2023-04-23T15:56:41.073Z,20.70
2023-04-23T15:59:09.141Z,20.60
2023-04-23T16:01:37.390Z,20.50
2023-04-23T16:04:10.740Z,20.50
2023-04-23T16:06:39.463Z,20.60
2023-04-23T16:09:10.525Z,20.50
2023-04-23T16:11:39.191Z,20.60
2023-04-23T16:14:07.464Z,20.60
2023-04-23T16:16:35.794Z,20.40
2023-04-23T16:19:04.127Z,20.40
2023-04-23T16:21:33.253Z,20.30
2023-04-23T16:24:01.248Z,20.20
2023-04-23T16:26:30.149Z,20.10
2023-04-23T16:29:11.318Z,19.90
2023-04-23T16:31:46.721Z,19.80
2023-04-23T16:34:14.705Z,19.80
2023-04-23T16:36:42.810Z,19.70
2023-04-23T16:39:10.897Z,19.60
2023-04-23T16:41:39.283Z,19.60
2023-04-23T16:44:08.596Z,19.40
2023-04-23T16:46:36.970Z,19.30
2023-04-23T16:49:05.277Z,19.30
2023-04-23T16:51:33.864Z,19.20
2023-04-23T16:54:02.241Z,19.10
2023-04-23T16:56:30.285Z,19.10
2023-04-23T16:58:59.020Z,19.00
2023-04-23T17:01:27.170Z,19.00
2023-04-23T17:03:55.288Z,18.90
2023-04-23T17:06:28.483Z,18.80
2023-04-23T17:08:56.960Z,18.70
2023-04-23T17:11:28.740Z,18.60
2023-04-23T17:13:57.314Z,18.20
2023-04-23T17:16:27.921Z,17.90
2023-04-23T17:18:56.342Z,17.60
2023-04-23T17:21:24.573Z,17.40
2023-04-23T17:23:52.795Z,17.20
2023-04-23T17:26:20.887Z,17.10
2023-04-23T17:28:48.899Z,17.20
2023-04-23T17:31:17.643Z,17.20
2023-04-23T17:33:46.878Z,17.20
2023-04-23T17:36:14.922Z,17.20
2023-04-23T17:38:42.952Z,17.20
2023-04-23T17:41:10.972Z,17.20
2023-04-23T17:43:39.068Z,17.10
2023-04-23T17:46:07.200Z,17.10
2023-04-23T17:48:35.278Z,17.00
2023-04-23T17:51:03.474Z,17.10
2023-04-23T17:53:32.135Z,17.10
2023-04-23T17:56:03.979Z,17.00
2023-04-23T17:58:36.197Z,17.00
2023-04-23T18:01:08.779Z,16.80
2023-04-23T18:03:37.335Z,16.60
2023-04-23T18:06:05.788Z,16.50
2023-04-23T18:08:33.837Z,16.30
2023-04-23T18:11:01.967Z,16.10
2023-04-23T18:13:30.093Z,16.10
2023-04-23T18:15:58.210Z,16.00
2023-04-23T18:18:27.286Z,16.00
2023-04-23T18:20:55.786Z,15.90
2023-04-23T18:23:23.993Z,15.90
2023-04-23T18:25:52.197Z,15.90
2023-04-23T18:28:22.320Z,15.90
2023-04-23T18:30:53.693Z,15.90
2023-04-23T18:33:44.465Z,16.00
2023-04-23T18:36:28.253Z,16.00
2023-04-23T18:38:56.349Z,16.00
2023-04-23T18:41:25.287Z,15.90
2023-04-23T18:44:01.507Z,15.90
2023-04-23T18:46:32.449Z,15.70
2023-04-23T18:49:07.935Z,15.70
2023-04-23T18:51:42.369Z,15.60
2023-04-23T18:54:19.148Z,15.50
2023-04-23T18:56:47.364Z,15.30
2023-04-23T18:59:15.464Z,15.10
2023-04-23T19:01:45.902Z,14.90
2023-04-23T19:04:14.237Z,14.70
2023-04-23T19:06:42.721Z,14.10
2023-04-23T19:09:11.089Z,13.70
2023-04-23T19:11:39.497Z,13.50
2023-04-23T19:14:07.629Z,13.40
2023-04-23T19:16:35.701Z,13.10
2023-04-23T19:19:04.009Z,13.00
2023-04-23T19:21:32.951Z,12.90
2023-04-23T19:24:00.994Z,12.80
2023-04-23T19:26:29.033Z,12.80
2023-04-23T19:28:57.327Z,12.80
2023-04-23T19:31:25.632Z,12.70
2023-04-23T19:33:53.854Z,12.70
2023-04-23T19:36:21.970Z,12.60
2023-04-23T19:38:50.258Z,12.60
2023-04-23T19:41:18.385Z,12.60
2023-04-23T19:43:46.871Z,12.70
2023-04-23T19:46:14.959Z,12.70
2023-04-23T19:48:43.031Z,12.70
2023-04-23T19:51:11.068Z,12.70
2023-04-23T19:53:42.112Z,12.80
2023-04-23T19:56:14.167Z,12.80
2023-04-23T19:58:44.526Z,12.70
2023-04-23T20:01:12.588Z,12.70
2023-04-23T20:03:40.904Z,12.70
2023-04-23T20:06:09.053Z,12.80
2023-04-23T20:08:43.914Z,12.70
2023-04-23T20:11:12.150Z,12.60
2023-04-23T20:13:40.238Z,12.50
2023-04-23T20:16:09.555Z,12.50
2023-04-23T20:18:39.967Z,12.60
2023-04-23T20:21:09.021Z,12.60
2023-04-23T20:23:37.434Z,12.50
2023-04-23T20:26:10.530Z,12.50
2023-04-23T20:28:38.710Z,12.50
2023-04-23T20:31:06.746Z,12.60
2023-04-23T20:33:34.805Z,12.60
2023-04-23T20:36:02.956Z,12.60
2023-04-23T20:38:34.461Z,12.60
2023-04-23T20:41:03.716Z,12.50
2023-04-23T20:43:34.457Z,12.50
2023-04-23T20:46:03.154Z,12.40
2023-04-23T20:48:31.301Z,12.30
2023-04-23T20:50:59.512Z,12.30
2023-04-23T20:53:27.687Z,12.20
2023-04-23T20:55:56.549Z,12.30
2023-04-23T20:58:24.930Z,12.30
2023-04-23T21:00:53.233Z,12.30
2023-04-23T21:03:21.499Z,12.30
2023-04-23T21:05:49.808Z,12.30
2023-04-23T21:08:18.012Z,12.30
2023-04-23T21:10:46.372Z,12.30
2023-04-23T21:13:14.485Z,12.30
2023-04-23T21:15:42.863Z,12.30
2023-04-23T21:18:16.986Z,12.30
2023-04-23T21:20:48.381Z,12.30
2023-04-23T21:23:17.151Z,12.20
2023-04-23T21:25:45.564Z,12.20
2023-04-23T21:28:13.712Z,12.20
2023-04-23T21:30:50.122Z,12.20
2023-04-23T21:33:19.193Z,12.10
2023-04-23T21:35:47.566Z,12.10
2023-04-23T21:38:15.659Z,12.00
2023-04-23T21:40:44.029Z,12.00
2023-04-23T21:43:12.893Z,12.00
2023-04-23T21:45:41.044Z,11.90
2023-04-23T21:48:09.343Z,11.90
2023-04-23T21:50:37.821Z,11.90
2023-04-23T21:53:08.202Z,11.80
2023-04-23T21:55:36.400Z,11.80
2023-04-23T21:58:16.685Z,11.80
2023-04-23T22:00:46.148Z,11.80
2023-04-23T22:03:15.287Z,11.70
2023-04-23T22:05:47.153Z,11.70
2023-04-23T22:08:17.883Z,11.70
2023-04-23T22:10:46.099Z,11.70
2023-04-23T22:13:15.573Z,11.70
2023-04-23T22:15:43.663Z,11.70
2023-04-23T22:18:11.962Z,11.80
2023-04-23T22:20:42.904Z,11.80
2023-04-23T22:23:11.045Z,11.90
2023-04-23T22:25:39.119Z,11.90
2023-04-23T22:28:07.598Z,11.90
2023-04-23T22:30:35.642Z,11.90
2023-04-23T22:33:03.726Z,11.90
2023-04-23T22:35:32.413Z,11.90
2023-04-23T22:38:00.511Z,12.00
2023-04-23T22:40:28.540Z,11.90
2023-04-23T22:42:56.559Z,11.80
2023-04-23T22:45:24.576Z,11.80
2023-04-23T22:47:52.896Z,11.80
2023-04-23T22:50:21.010Z,11.70
2023-04-23T22:52:49.126Z,11.70
2023-04-23T22:55:17.364Z,11.70
2023-04-23T22:57:45.457Z,11.60
2023-04-23T23:00:14.260Z,11.60
2023-04-23T23:02:42.924Z,11.70
2023-04-23T23:05:11.551Z,11.60
2023-04-23T23:07:39.904Z,11.60
2023-04-23T23:10:10.062Z,11.60
2023-04-23T23:12:38.540Z,11.60
2023-04-23T23:15:07.604Z,11.50
2023-04-23T23:17:35.843Z,11.60
2023-04-23T23:20:03.856Z,11.60
2023-04-23T23:22:32.114Z,11.50
2023-04-23T23:25:00.224Z,11.50
2023-04-23T23:27:28.319Z,11.50
2023-04-23T23:29:59.188Z,11.50
2023-04-23T23:32:27.315Z,11.50
2023-04-23T23:34:55.332Z,11.50
2023-04-23T23:37:23.868Z,11.50
2023-04-23T23:39:52.696Z,11.50
2023-04-23T23:42:20.789Z,11.50
2023-04-23T23:44:48.754Z,11.50
2023-04-23T23:47:16.939Z,11.50
2023-04-23T23:49:45.164Z,11.50
2023-04-23T23:52:13.287Z,11.50
2023-04-23T23:54:41.418Z,11.50
2023-04-23T23:57:09.461Z,11.50
2023-04-23T23:59:37.765Z,11.50
